createdAt,value
2023-03-12T00:01:52.191Z,9.30
2023-03-12T00:05:38.027Z,9.30
2023-03-12T00:09:20.445Z,9.30
2023-03-12T00:13:02.599Z,9.40
2023-03-12T00:16:44.702Z,9.40
2023-03-12T00:20:26.959Z,9.40
2023-03-12T00:24:09.030Z,9.50
2023-03-12T00:27:51.035Z,9.50
2023-03-12T00:31:36.429Z,9.50
2023-03-12T00:35:18.731Z,9.60
2023-03-12T00:39:01.363Z,9.60
2023-03-12T00:42:43.544Z,9.60
2023-03-12T00:46:25.718Z,9.60
2023-03-12T00:50:08.646Z,9.70
2023-03-12T00:53:50.689Z,9.70
2023-03-12T00:57:32.801Z,9.80
2023-03-12T01:01:14.836Z,9.80
2023-03-12T01:04:57.053Z,9.80
2023-03-12T01:08:39.484Z,9.80
2023-03-12T01:12:21.802Z,9.90
2023-03-12T01:16:03.951Z,9.90
2023-03-12T01:19:46.052Z,9.90
2023-03-12T01:23:28.086Z,9.90
2023-03-12T01:27:10.337Z,9.90
2023-03-12T01:30:52.626Z,9.90
2023-03-12T01:34:35.695Z,9.90
2023-03-12T01:38:19.253Z,9.90
2023-03-12T01:42:02.125Z,9.90
2023-03-12T01:45:59.414Z,10.00
2023-03-12T01:49:41.691Z,10.00
2023-03-12T01:53:23.901Z,10.00
2023-03-12T01:57:10.471Z,10.00
2023-03-12T02:00:52.595Z,9.90
2023-03-12T02:04:37.586Z,9.90
2023-03-12T02:08:20.916Z,9.90
2023-03-12T02:12:03.312Z,9.80
2023-03-12T02:15:45.799Z,9.80
2023-03-12T02:19:36.327Z,9.80
2023-03-12T02:23:33.514Z,9.80
2023-03-12T02:27:18.176Z,9.80
2023-03-12T02:31:04.049Z,9.80
2023-03-12T02:34:48.198Z,9.80
2023-03-12T02:38:51.169Z,9.70
2023-03-12T02:42:33.848Z,9.70
2023-03-12T02:46:16.674Z,9.70
2023-03-12T02:49:58.856Z,9.70
2023-03-12T02:53:41.032Z,9.70
2023-03-12T02:57:23.530Z,9.70
2023-03-12T03:01:08.172Z,9.60
2023-03-12T03:04:50.369Z,9.60
2023-03-12T03:08:32.414Z,9.70
2023-03-12T03:12:14.545Z,9.60
2023-03-12T03:16:02.030Z,9.60
2023-03-12T03:19:44.212Z,9.60
2023-03-12T03:23:26.278Z,9.60
2023-03-12T03:27:08.456Z,9.60
2023-03-12T03:30:53.953Z,9.60
2023-03-12T03:34:36.179Z,9.60
2023-03-12T03:38:18.230Z,9.60
2023-03-12T03:42:00.245Z,9.60
2023-03-12T03:45:44.857Z,9.50
2023-03-12T03:49:26.946Z,9.40
2023-03-12T03:53:10.146Z,9.30
2023-03-12T03:56:52.296Z,9.30
2023-03-12T04:00:34.503Z,9.30
2023-03-12T04:04:17.023Z,9.30
2023-03-12T04:08:03.292Z,9.20
2023-03-12T04:11:45.329Z,9.20
2023-03-12T04:15:27.442Z,9.20
2023-03-12T04:19:09.589Z,9.10
2023-03-12T04:22:51.641Z,9.10
2023-03-12T04:26:33.678Z,9.10
2023-03-12T04:30:15.821Z,9.10
2023-03-12T04:33:58.041Z,9.10
2023-03-12T04:37:40.284Z,9.10
2023-03-12T04:41:22.369Z,9.10
2023-03-12T04:45:06.430Z,9.10
2023-03-12T04:48:48.563Z,9.00
2023-03-12T04:52:30.770Z,8.90
2023-03-12T04:56:13.356Z,8.80
2023-03-12T04:59:55.466Z,8.80
2023-03-12T05:03:38.607Z,8.70
2023-03-12T05:07:20.758Z,8.70
2023-03-12T05:11:03.210Z,8.70
2023-03-12T05:14:45.223Z,8.70
2023-03-12T05:18:28.751Z,8.70
2023-03-12T05:22:10.800Z,8.70
2023-03-12T05:25:52.899Z,8.60
2023-03-12T05:29:35.693Z,8.50
2023-03-12T05:33:17.767Z,8.50
2023-03-12T05:37:00.222Z,8.40
2023-03-12T05:40:42.451Z,8.30
2023-03-12T05:44:25.664Z,8.30
2023-03-12T05:48:07.669Z,8.30
2023-03-12T05:51:50.985Z,8.30
2023-03-12T05:55:38.029Z,8.30
2023-03-12T05:59:20.029Z,8.30
2023-03-12T06:03:02.191Z,8.30
2023-03-12T06:06:44.242Z,8.40
2023-03-12T06:10:26.332Z,8.50
2023-03-12T06:14:09.067Z,8.50
2023-03-12T06:17:51.377Z,8.50
2023-03-12T06:21:35.761Z,8.50
2023-03-12T06:25:17.835Z,8.60
2023-03-12T06:28:59.907Z,8.60
2023-03-12T06:32:41.996Z,8.60
2023-03-12T06:36:24.788Z,8.60
2023-03-12T06:40:10.120Z,8.60
2023-03-12T06:43:52.209Z,8.60
2023-03-12T06:47:34.384Z,8.50
2023-03-12T06:51:17.316Z,8.50
2023-03-12T06:54:59.426Z,8.60
2023-03-12T06:58:41.936Z,8.60
2023-03-12T07:02:24.113Z,8.60
2023-03-12T07:06:12.905Z,8.70
2023-03-12T07:09:55.005Z,8.70
2023-03-12T07:13:37.265Z,8.70
2023-03-12T07:17:19.272Z,8.80
2023-03-12T07:30:43.281Z,8.90
2023-03-12T07:34:25.594Z,8.90
2023-03-12T07:38:41.807Z,9.00
2023-03-12T07:47:30.063Z,9.00
2023-03-12T08:42:46.185Z,10.60
2023-03-12T08:46:28.382Z,10.90
2023-03-12T08:50:35.210Z,11.70
2023-03-12T08:54:17.430Z,12.50
2023-03-12T09:02:57.156Z,13.30
2023-03-12T09:06:39.478Z,13.80
2023-03-12T09:15:28.327Z,14.10
2023-03-12T09:19:12.892Z,14.30
2023-03-12T09:27:05.720Z,16.10
2023-03-12T09:31:09.938Z,16.70
2023-03-12T09:34:59.337Z,17.30
2023-03-12T09:38:59.258Z,17.80
2023-03-12T09:42:52.393Z,17.80
2023-03-12T09:47:02.236Z,18.00
2023-03-12T09:55:49.377Z,18.60
2023-03-12T09:59:31.615Z,18.70
2023-03-12T10:03:42.438Z,18.40
2023-03-12T10:08:24.431Z,17.80
2023-03-12T10:12:46.288Z,17.30
2023-03-12T10:21:01.021Z,16.50
2023-03-12T10:25:13.637Z,16.40
2023-03-12T10:29:36.806Z,16.60
2023-03-12T10:33:20.197Z,16.80
2023-03-12T10:37:26.657Z,16.90
2023-03-12T10:45:37.615Z,16.60
2023-03-12T10:53:48.346Z,16.40
2023-03-12T10:57:47.757Z,16.40
2023-03-12T11:01:31.648Z,16.30
2023-03-12T11:09:20.486Z,16.10
2023-03-12T11:13:33.777Z,16.00
2023-03-12T11:17:27.826Z,15.90
2023-03-12T11:25:23.061Z,15.90
2023-03-12T11:29:33.248Z,15.90
2023-03-12T11:33:15.374Z,15.80
2023-03-12T11:37:15.502Z,15.70
2023-03-12T11:41:02.740Z,15.70
2023-03-12T11:45:06.017Z,15.60
2023-03-12T11:49:36.147Z,15.50
2023-03-12T11:58:36.530Z,15.50
2023-03-12T12:07:03.201Z,15.70
2023-03-12T12:10:59.743Z,15.90
2023-03-12T12:14:47.724Z,15.90
2023-03-12T12:31:43.072Z,15.90
2023-03-12T12:40:37.942Z,15.70
2023-03-12T12:57:29.499Z,15.40
2023-03-12T13:05:38.256Z,15.30
2023-03-12T13:22:16.293Z,15.30
2023-03-12T13:34:42.906Z,15.40
2023-03-12T13:42:40.312Z,15.60
2023-03-12T14:01:42.111Z,15.40
2023-03-12T14:27:49.244Z,15.30
2023-03-12T14:32:09.651Z,15.10
2023-03-12T14:44:30.878Z,14.10
2023-03-12T14:52:31.095Z,14.00
2023-03-12T15:00:23.311Z,14.00
2023-03-12T15:09:16.664Z,14.10
2023-03-12T15:18:17.181Z,14.30
2023-03-12T15:35:26.456Z,13.70
2023-03-12T15:39:43.490Z,13.40
2023-03-12T16:10:17.158Z,12.00
2023-03-12T16:18:03.268Z,11.80
2023-03-12T16:26:05.670Z,11.80
2023-03-12T16:33:51.948Z,11.80
2023-03-12T17:02:09.794Z,11.80
2023-03-12T17:15:34.850Z,11.80
2023-03-12T18:04:33.040Z,11.20
2023-03-12T18:08:44.629Z,11.20
2023-03-12T18:13:00.058Z,11.20
2023-03-12T18:16:59.396Z,11.10
2023-03-12T18:20:41.578Z,11.10
2023-03-12T18:24:26.058Z,11.10
2023-03-12T18:28:15.702Z,11.00
2023-03-12T18:31:57.730Z,11.00
2023-03-12T18:35:41.970Z,11.00
2023-03-12T18:39:26.576Z,11.00
2023-03-12T18:43:08.661Z,11.00
2023-03-12T18:46:51.914Z,11.00
2023-03-12T18:50:33.924Z,11.00
2023-03-12T18:54:15.961Z,11.00
2023-03-12T18:57:57.992Z,11.00
2023-03-12T19:01:40.087Z,11.00
2023-03-12T19:05:22.630Z,11.00
2023-03-12T19:09:05.348Z,11.00
2023-03-12T19:12:53.328Z,11.00
2023-03-12T19:16:36.035Z,11.00
2023-03-12T19:20:18.325Z,11.00
2023-03-12T19:24:00.577Z,11.00
2023-03-12T19:27:45.156Z,11.00
2023-03-12T19:31:27.182Z,11.00
2023-03-12T19:35:21.189Z,11.00
2023-03-12T19:39:06.769Z,11.00
2023-03-12T19:42:53.994Z,11.00
2023-03-12T19:46:36.035Z,11.10
2023-03-12T19:50:21.207Z,11.10
2023-03-12T19:54:03.123Z,11.10
2023-03-12T19:57:45.170Z,11.10
2023-03-12T20:01:27.068Z,11.20
2023-03-12T20:05:09.524Z,11.20
2023-03-12T20:08:51.516Z,11.20
2023-03-12T20:12:34.025Z,11.20
2023-03-12T20:16:17.032Z,11.30
2023-03-12T20:19:58.974Z,11.30
2023-03-12T20:23:41.016Z,11.40
2023-03-12T20:27:22.978Z,11.30
2023-03-12T20:31:09.074Z,11.40
2023-03-12T20:34:51.049Z,11.40
2023-03-12T20:38:33.261Z,11.40
2023-03-12T20:42:15.291Z,11.40
2023-03-12T20:45:57.484Z,11.50
2023-03-12T20:49:39.454Z,11.50
2023-03-12T20:53:21.382Z,11.50
2023-03-12T20:57:03.476Z,11.50
2023-03-12T21:00:45.622Z,11.60
2023-03-12T21:04:27.658Z,11.60
2023-03-12T21:08:09.646Z,11.60
2023-03-12T21:11:51.651Z,11.70
2023-03-12T21:15:33.623Z,11.60
2023-03-12T21:19:16.373Z,11.70
2023-03-12T21:22:58.683Z,11.70
2023-03-12T21:26:40.746Z,11.80
2023-03-12T21:30:22.800Z,11.80
2023-03-12T21:34:04.901Z,11.80
2023-03-12T21:37:56.175Z,11.80
2023-03-12T21:41:38.200Z,11.80
2023-03-12T21:45:22.692Z,11.80
2023-03-12T21:49:04.999Z,11.90
2023-03-12T21:52:52.279Z,11.80
2023-03-12T21:56:34.256Z,11.90
2023-03-12T22:00:16.756Z,11.90
2023-03-12T22:03:59.617Z,11.90
2023-03-12T22:07:44.091Z,11.90
2023-03-12T22:11:26.139Z,11.90
2023-03-12T22:15:11.442Z,12.00
2023-03-12T22:18:53.702Z,12.00
2023-03-12T22:22:36.983Z,11.90
2023-03-12T22:26:29.238Z,12.00
2023-03-12T22:30:13.466Z,11.90
2023-03-12T22:33:57.083Z,11.90
2023-03-12T22:37:39.126Z,11.90
2023-03-12T22:41:27.287Z,11.90
2023-03-12T22:45:09.842Z,11.90
2023-03-12T22:48:59.711Z,11.90
2023-03-12T22:52:44.174Z,11.90
2023-03-12T22:56:26.566Z,11.90
2023-03-12T23:00:13.277Z,11.90
2023-03-12T23:03:55.472Z,11.90
2023-03-12T23:07:37.716Z,11.90
2023-03-12T23:11:25.428Z,11.90
2023-03-12T23:15:08.061Z,11.90
2023-03-12T23:18:50.474Z,11.90
2023-03-12T23:22:34.007Z,11.90
2023-03-12T23:26:18.811Z,11.90
2023-03-12T23:30:00.893Z,11.90
2023-03-12T23:33:44.139Z,11.90
2023-03-12T23:37:28.854Z,11.90
2023-03-12T23:41:25.796Z,12.00
2023-03-12T23:45:08.589Z,11.90
2023-03-12T23:48:51.054Z,11.80
2023-03-12T23:52:33.007Z,11.90
2023-03-12T23:56:20.860Z,11.80
